^^
Station Historical Data
Daily Summary for July 2, 2017 Units:  Metric    English   Both
« Previous Day
Next Day »
Daily Weekly Monthly Yearly Custom
  High: Low: Average:
Temperature: 17.3 °C 3.4 °C 9.1 °C
Dew Point: 6.2 °C -2.9 °C 1.9 °C
Humidity: 79% 42% 62%
Wind Speed: 25.9km/h 0km/h 4.2km/h
Wind Gust: 27.4km/h - -
Wind- - WSW
Pressure: 1023.2 hPa 1019.5 hPa -
Precipitation: 0 mm    
Historical Graphs
 
 
Tabular Data for July 2, 2017
Time Temperature Dew Point Pressure Wind Wind Speed Wind Gust Humidity Rainfall Rate (Hourly) solar Conditions
00:01 8.3 °C -2.9 °C 1019.5 hPa Calm     45% 0 mm 0.0 W/m2
00:06 8.3 °C -2.6 °C 1019.5 hPa Calm     46% 0 mm 0.0 W/m2
00:11 8.2 °C -2.7 °C 1019.5 hPa Calm     46% 0 mm 0.0 W/m2
00:16 8.1 °C -2.5 °C 1019.5 hPa Calm     47% 0 mm 0.0 W/m2
00:26 8 °C -2.1 °C 1019.5 hPa Calm     49% 0 mm 0.0 W/m2
00:31 8 °C -1.8 °C 1019.5 hPa Calm     50% 0 mm 0.0 W/m2
00:42 7.9 °C -1.9 °C 1019.5 hPa Calm     50% 0 mm 0.0 W/m2
00:47 8 °C -1.8 °C 1019.5 hPa Calm     50% 0 mm 0.0 W/m2
00:52 8.1 °C -1.7 °C 1019.5 hPa Calm     50% 0 mm 0.0 W/m2
00:58 8.3 °C -1.5 °C 1019.5 hPa Calm     50% 0 mm 0.0 W/m2
01:03 8.4 °C -1.4 °C 1019.5 hPa Calm     50% 0 mm 0.0 W/m2
01:08 8.3 °C -1.2 °C 1019.9 hPa Calm     51% 0 mm 0.0 W/m2
01:13 8.2 °C -1.1 °C 1019.5 hPa Calm     52% 0 mm 0.0 W/m2
01:18 8.3 °C -0.7 °C 1019.5 hPa Calm     53% 0 mm 0.0 W/m2
01:24 8.4 °C -0.6 °C 1019.5 hPa Calm     53% 0 mm 0.0 W/m2
01:29 8.4 °C -1.2 °C 1019.9 hPa Calm     51% 0 mm 0.0 W/m2
01:34 8.3 °C -1.2 °C 1019.5 hPa Calm     51% 0 mm 0.0 W/m2
01:39 8.1 °C -0.9 °C 1019.5 hPa Calm     53% 0 mm 0.0 W/m2
01:44 7.9 °C -0.8 °C 1019.5 hPa Calm     54% 0 mm 0.0 W/m2
01:50 7.8 °C -0.4 °C 1019.5 hPa Calm     56% 0 mm 0.0 W/m2
01:55 7.9 °C -0.3 °C 1019.5 hPa Calm     56% 0 mm 0.0 W/m2
02:00 7.8 °C -0.9 °C 1019.5 hPa Calm     54% 0 mm 0.0 W/m2
02:06 7.4 °C -1.6 °C 1019.9 hPa Calm     53% 0 mm 0.0 W/m2
02:11 7.2 °C -0.5 °C 1019.9 hPa Calm     58% 0 mm 0.0 W/m2
02:16 7.3 °C 0 °C 1019.5 hPa Calm     60% 0 mm 0.0 W/m2
02:21 7.5 °C -0.5 °C 1019.5 hPa Calm     57% 0 mm 0.0 W/m2
02:27 7.3 °C -0.9 °C 1019.5 hPa Calm     56% 0 mm 0.0 W/m2
02:32 6.9 °C -1 °C 1019.5 hPa Calm     57% 0 mm 0.0 W/m2
02:37 6.6 °C -1.1 °C 1019.5 hPa Calm     58% 0 mm 0.0 W/m2
02:42 6.4 °C -1.3 °C 1019.5 hPa Calm     58% 0 mm 0.0 W/m2
02:47 6.1 °C -2 °C 1019.9 hPa Calm     56% 0 mm 0.0 W/m2
02:58 5.3 °C -1.6 °C 1019.9 hPa Calm     61% 0 mm 0.0 W/m2
03:03 5.1 °C -1.4 °C 1019.9 hPa Calm     63% 0 mm 0.0 W/m2
03:08 5.1 °C -0.7 °C 1019.9 hPa Calm     66% 0 mm 0.0 W/m2
03:14 5.3 °C -0.7 °C 1020.2 hPa Calm     65% 0 mm 0.0 W/m2
03:19 5.4 °C -0.7 °C 1020.2 hPa Calm     65% 0 mm 0.0 W/m2
03:24 5.8 °C 0.9 °C 1020.2 hPa NNW 9.7 km/h 12.9 km/h 71% 0 mm 0.0 W/m2
03:29 6.7 °C 1.6 °C 1020.5 hPa NNW 11.1 km/h 19.3 km/h 70% 0 mm 0.0 W/m2
03:39 7.1 °C 1.4 °C 1020.5 hPa NNW 11.1 km/h 11.3 km/h 67% 0 mm 0.0 W/m2
03:44 7.4 °C 2.1 °C 1020.5 hPa NW 13 km/h 20.9 km/h 69% 0 mm 0.0 W/m2
03:54 7.6 °C 1.7 °C 1020.5 hPa NW 9.7 km/h 11.3 km/h 66% 0 mm 0.0 W/m2
03:59 7.3 °C 1.6 °C 1020.5 hPa NW 7.9 km/h 8 km/h 67% 0 mm 0.0 W/m2
04:04 7.1 °C 1.4 °C 1020.5 hPa Calm     67% 0 mm 0.0 W/m2
04:09 6.8 °C 1.5 °C 1020.2 hPa Calm     69% 0 mm 0.0 W/m2
04:15 6.7 °C 1.6 °C 1020.2 hPa Calm     70% 0 mm 0.0 W/m2
04:20 6.6 °C 1.5 °C 1020.2 hPa Calm     70% 0 mm 0.0 W/m2
04:25 6.4 °C 1.1 °C 1020.2 hPa NW 13 km/h 14.5 km/h 69% 0 mm 0.0 W/m2
04:30 7 °C 2.3 °C 1020.2 hPa NW 7.9 km/h 14.5 km/h 72% 0 mm 0.0 W/m2
04:35 7.1 °C 1.4 °C 1020.2 hPa NW 3.2 km/h 6.4 km/h 67% 0 mm 0.0 W/m2
04:40 6.9 °C 1.4 °C 1020.2 hPa Calm     68% 0 mm 0.0 W/m2
04:46 6.6 °C 1.5 °C 1020.2 hPa Calm     70% 0 mm 0.0 W/m2
04:51 6.3 °C 1.2 °C 1020.2 hPa Calm     70% 0 mm 0.0 W/m2
04:56 5.9 °C 0.8 °C 1019.9 hPa Calm     70% 0 mm 0.0 W/m2
05:01 5.7 °C 0.9 °C 1019.9 hPa Calm     71% 0 mm 0.0 W/m2
05:06 5.5 °C 1 °C 1019.9 hPa Calm     73% 0 mm 0.0 W/m2
05:12 5.3 °C 1 °C 1020.2 hPa Calm     74% 0 mm 0.0 W/m2
05:18 5.1 °C 0.5 °C 1020.2 hPa Calm     72% 0 mm 0.0 W/m2
05:27 4.7 °C 0.6 °C 1020.5 hPa Calm     75% 0 mm 0.0 W/m2
05:32 4.8 °C 0.9 °C 1020.5 hPa Calm     76% 0 mm 0.0 W/m2
05:37 4.8 °C 0.9 °C 1020.5 hPa Calm     76% 0 mm 0.0 W/m2
05:43 4.8 °C 0.9 °C 1020.5 hPa Calm     76% 0 mm 0.0 W/m2
05:48 4.8 °C 0.9 °C 1020.5 hPa Calm     76% 0 mm 0.0 W/m2
05:53 4.7 °C 0.6 °C 1020.5 hPa Calm     75% 0 mm 0.0 W/m2
05:59 4.5 °C 0.3 °C 1020.5 hPa Calm     74% 0 mm 0.0 W/m2
06:04 4.3 °C -0.1 °C 1020.5 hPa Calm     73% 0 mm 0.0 W/m2
06:13 4.1 °C 0.1 °C 1020.5 hPa Calm     75% 0 mm 0.0 W/m2
06:19 3.9 °C -0.3 °C 1020.5 hPa Calm     74% 0 mm 0.0 W/m2
06:25 3.8 °C -0.2 °C 1020.5 hPa Calm     75% 0 mm 0.0 W/m2
06:34 3.5 °C -0.3 °C 1020.5 hPa Calm     76% 0 mm 5.0 W/m2
06:40 3.4 °C -0.1 °C 1020.5 hPa Calm     78% 0 mm 7.0 W/m2
06:51 3.6 °C 0.3 °C 1020.9 hPa Calm     79% 0 mm 18.0 W/m2
07:10 3.8 °C 0.3 °C 1020.9 hPa Calm     78% 0 mm 42.0 W/m2
07:15 4 °C 0.3 °C 1021.2 hPa Calm     77% 0 mm 53.0 W/m2
07:30 4.6 °C 0.7 °C 1021.2 hPa Calm     76% 0 mm 104.0 W/m2
07:41 5.1 °C 1 °C 1021.2 hPa Calm     75% 0 mm 134.0 W/m2
07:51 5.9 °C 1.6 °C 1021.6 hPa Calm     74% 0 mm 102.0 W/m2
08:01 6.9 °C 2 °C 1021.9 hPa Calm     71% 0 mm 102.0 W/m2
08:11 7.4 °C 2.3 °C 1021.9 hPa Calm     70% 0 mm 192.0 W/m2
08:20 7.9 °C 2.6 °C 1021.9 hPa Calm     69% 0 mm 257.0 W/m2
08:30 8.8 °C 3.2 °C 1021.9 hPa Calm     68% 0 mm 290.0 W/m2
08:40 9.6 °C 3.6 °C 1021.9 hPa Calm     66% 0 mm 318.0 W/m2
08:48 10.2 °C 3.9 °C 1021.9 hPa Calm     65% 0 mm 345.0 W/m2
09:02 11.1 °C 4.3 °C 1022.2 hPa Calm     63% 0 mm 371.0 W/m2
09:12 11.7 °C 4.2 °C 1022.2 hPa NW 9.7 km/h 14.5 km/h 60% 0 mm 392.0 W/m2
09:21 12.2 °C 4.4 °C 1022.2 hPa NW 13 km/h 14.5 km/h 59% 0 mm 415.0 W/m2
10:43 14.6 °C 5.1 °C 1022.6 hPa West 16.3 km/h 22.5 km/h 53% 0 mm 550.0 W/m2
10:54 14.6 °C 5.7 °C 1022.2 hPa WSW 16.3 km/h 22.5 km/h 55% 0 mm 561.0 W/m2
11:08 15 °C 6 °C 1021.9 hPa WSW 14.3 km/h 22.5 km/h 55% 0 mm 575.0 W/m2
11:15 15.1 °C 5.9 °C 1021.9 hPa WSW 14.3 km/h 16.1 km/h 54% 0 mm 573.0 W/m2
11:25 15.4 °C 5.6 °C 1021.6 hPa SW 19.5 km/h 20.9 km/h 52% 0 mm 585.0 W/m2
11:30 15.7 °C 5.3 °C 1021.6 hPa SW 20.9 km/h 25.7 km/h 50% 0 mm 589.0 W/m2
11:40 15.7 °C 5.6 °C 1021.6 hPa SSW 17.7 km/h 22.5 km/h 51% 0 mm 591.0 W/m2
11:50 15.9 °C 5.5 °C 1021.2 hPa SSW 13 km/h 22.5 km/h 50% 0 mm 592.0 W/m2
12:06 15.9 °C 5.8 °C 1021.2 hPa SSW 20.9 km/h 20.9 km/h 51% 0 mm 591.0 W/m2
12:12 16 °C 6.1 °C 1021.2 hPa SSW 16.3 km/h 17.7 km/h 52% 0 mm 587.0 W/m2
12:18 16.1 °C 6 °C 1020.9 hPa SSW 16.3 km/h 20.9 km/h 51% 0 mm 587.0 W/m2
12:28 16.4 °C 6.2 °C 1020.9 hPa SSW 20.9 km/h 22.5 km/h 51% 0 mm 582.0 W/m2
12:37 16.6 °C 5.8 °C 1020.5 hPa SSW 14.3 km/h 22.5 km/h 49% 0 mm 566.0 W/m2
12:45 16.8 °C 6 °C 1020.5 hPa SSW 25.9 km/h 25.9 km/h 49% 0 mm 568.0 W/m2
12:58 16.7 °C 5.9 °C 1020.5 hPa SSW 17.7 km/h 25.7 km/h 49% 0 mm 563.0 W/m2
13:15 16.8 °C 5.1 °C 1020.5 hPa SSW 24.1 km/h 24.1 km/h 46% 0 mm 536.0 W/m2
13:23 16.7 °C 5.9 °C 1020.5 hPa SSW 20.9 km/h 20.9 km/h 49% 0 mm 529.0 W/m2
13:35 17.1 °C 4.7 °C 1020.2 hPa SSW 13 km/h 20.9 km/h 44% 0 mm 508.0 W/m2
13:50 17.3 °C 4.6 °C 1020.2 hPa SSW 14.3 km/h 22.5 km/h 43% 0 mm 490.0 W/m2
14:05 17.3 °C 4.3 °C 1020.2 hPa SSW 14.3 km/h 20.9 km/h 42% 0 mm 464.0 W/m2
14:19 17.1 °C 4.1 °C 1020.2 hPa SSW 17.7 km/h 27.4 km/h 42% 0 mm 434.0 W/m2
14:30 17.2 °C 4.2 °C 1020.2 hPa SSW 16.3 km/h 19.3 km/h 42% 0 mm 411.0 W/m2
14:40 17.1 °C 4.1 °C 1020.2 hPa SSW 13 km/h 25.7 km/h 42% 0 mm 390.0 W/m2
14:49 17.3 °C 4.3 °C 1020.2 hPa SSW 14.3 km/h 24.1 km/h 42% 0 mm 366.0 W/m2
14:57 17.2 °C 4.2 °C 1020.2 hPa SSW 19.5 km/h 22.5 km/h 42% 0 mm 339.0 W/m2
18:44 13.2 °C 4.9 °C 1022.6 hPa SSW 9.7 km/h 11.3 km/h 57% 0 mm 0.0 W/m2
18:57 12.9 °C 4.8 °C 1022.6 hPa SSW 6.4 km/h 8 km/h 58% 0 mm 0.0 W/m2
19:02 12.7 °C 4.9 °C 1022.6 hPa SSW 9.7 km/h 9.7 km/h 59% 0 mm 0.0 W/m2
19:12 12.4 °C 4.9 °C 1022.9 hPa SSW 6.4 km/h 9.7 km/h 60% 0 mm 0.0 W/m2
19:22 12.1 °C 4.8 °C 1022.9 hPa SSW 3.2 km/h 6.4 km/h 61% 0 mm 0.0 W/m2
19:38 11.6 °C 4.6 °C 1022.9 hPa Calm     62% 0 mm 0.0 W/m2
19:59 11.1 °C 4.1 °C 1022.9 hPa Calm     62% 0 mm 0.0 W/m2
20:09 10.4 °C 3.7 °C 1022.9 hPa Calm     63% 0 mm 0.0 W/m2
20:29 9.9 °C 3.6 °C 1023.2 hPa Calm     65% 0 mm 0.0 W/m2
20:39 9.7 °C 3.9 °C 1023.2 hPa Calm     67% 0 mm 0.0 W/m2
20:49 10.1 °C 3.6 °C 1023.2 hPa Calm     64% 0 mm 0.0 W/m2
20:59 9.8 °C 3.5 °C 1023.2 hPa Calm     65% 0 mm 0.0 W/m2
21:06 9.8 °C 3.5 °C 1023.2 hPa Calm     65% 0 mm 0.0 W/m2
21:12 9.7 °C 3.4 °C 1023.2 hPa Calm     65% 0 mm 0.0 W/m2
21:20 9.3 °C 3.3 °C 1023.2 hPa Calm     66% 0 mm 0.0 W/m2
21:39 8.8 °C 3.2 °C 1023.2 hPa Calm     68% 0 mm 0.0 W/m2
21:46 8.9 °C 3.5 °C 1023.2 hPa Calm     69% 0 mm 0.0 W/m2
22:47 9.1 °C 4.3 °C 1023.2 hPa Calm     72% 0 mm 0.0 W/m2
22:52 9.2 °C 4.6 °C 1023.2 hPa Calm     73% 0 mm 0.0 W/m2
22:57 9.2 °C 4.4 °C 1023.2 hPa Calm     72% 0 mm 0.0 W/m2
23:02 8.9 °C 4.1 °C 1022.9 hPa Calm     72% 0 mm 0.0 W/m2
23:08 8.7 °C 4.1 °C 1023.2 hPa Calm     73% 0 mm 0.0 W/m2
23:13 8.6 °C 4 °C 1022.9 hPa Calm     73% 0 mm 0.0 W/m2
23:18 8.4 °C 3.8 °C 1022.9 hPa Calm     73% 0 mm 0.0 W/m2
23:23 8.2 °C 4 °C 1022.9 hPa Calm     75% 0 mm 0.0 W/m2
23:34 8.1 °C 4.1 °C 1023.2 hPa Calm     76% 0 mm 0.0 W/m2
23:49 8.3 °C 4.3 °C 1023.2 hPa Calm     76% 0 mm 0.0 W/m2
23:54 8.2 °C 4.2 °C 1022.9 hPa Calm     76% 0 mm 0.0 W/m2
23:59 8.2 °C 4.2 °C 1022.9 hPa Calm     76% 0 mm 0.0 W/m2
Canyon Roadhouse, Fishriver Canyon, Namibia
Compliments of Weather Underground - 2.25 mb